Time;durP1;ratioP1;P1;durP2;ratioP2;P2;SDS_P1;SDS_P2;PMS_P1;PMS_P2;Temp;Humidity;BMP_temperature;BMP_pressure;BME280_temperature;BME280_humidity;BME280_pressure;Samples;Min_cycle;Max_cycle;Signal;HPM_P1;HPM_P2
2023/03/12 00:00:52;;;;;;;;;;;;;;;10.89;63.55;96592.31;4218452;28;5678;-66
2023/03/12 00:02:55;;;;;;;;;;;;;;;10.88;63.60;96601.25;4227071;28;5647;-66
2023/03/12 00:04:58;;;;;;;;;;;;;;;10.89;63.50;96602.06;4231266;28;5641;-66
2023/03/12 00:07:01;;;;;;;;;;;;;;;10.87;63.52;96598.78;4235207;28;5755;-66
2023/03/12 00:09:05;;;;;;;;;;;;;;;10.90;63.30;96599.22;4222115;28;5682;-66
2023/03/12 00:11:10;;;;;;;;;;;;;;;10.89;63.26;96589.66;4226850;28;5663;-66
2023/03/12 00:13:13;;;;;;;;;;;;;;;10.85;63.23;96596.34;4226803;28;5658;-66
2023/03/12 00:15:16;;;;;;;;;;;;;;;10.86;63.40;96597.16;4225196;28;5649;-66
2023/03/12 00:17:19;;;;;;;;;;;;;;;10.87;63.36;96606.72;4226696;28;5748;-66
2023/03/12 00:19:21;;;;;;;;;;;;;;;10.85;63.70;96601.63;4226768;28;6267;-66
2023/03/12 00:21:24;;;;;;;;;;;;;;;10.84;63.90;96613.22;4219330;28;5655;-66
2023/03/12 00:23:27;;;;;;;;;;;;;;;10.82;63.63;96614.44;4235020;28;5666;-66
2023/03/12 00:25:32;;;;;;;;;;;;;;;10.84;63.80;96609.78;4226904;28;5652;-65
2023/03/12 00:27:34;;;;;;;;;;;;;;;10.86;63.82;96605.09;4227016;28;5641;-65
2023/03/12 00:29:37;;;;;;;;;;;;;;;10.85;63.77;96617.50;4235431;28;5838;-65
2023/03/12 00:31:40;;;;;;;;;;;;;;;10.84;63.60;96615.88;4234911;28;5117;-65
2023/03/12 00:33:43;;;;;;;;;;;;;;;10.85;63.55;96617.50;4224154;28;7730;-66
2023/03/12 00:35:46;;;;;;;;;;;;;;;10.88;63.68;96632.19;4220501;28;5761;-65
2023/03/12 00:37:49;;;;;;;;;;;;;;;10.92;63.51;96633.41;4226057;28;5816;-65
2023/03/12 00:39:52;;;;;;;;;;;;;;;10.95;63.70;96633.81;4229058;28;5674;-65
2023/03/12 00:41:56;;;;;;;;;;;;;;;10.97;63.73;96626.47;4226757;28;5764;-65
2023/03/12 00:43:59;;;;;;;;;;;;;;;10.99;63.50;96635.06;4222294;28;5633;-64
2023/03/12 00:46:02;;;;;;;;;;;;;;;10.98;63.64;96637.88;4222449;28;5658;-65
2023/03/12 00:48:05;;;;;;;;;;;;;;;10.97;63.85;96638.91;4226285;28;5107;-65
2023/03/12 00:50:09;;;;;;;;;;;;;;;10.95;63.75;96633.00;4220862;27;5668;-65
2023/03/12 00:52:12;;;;;;;;;;;;;;;10.93;63.63;96633.19;4223613;28;7197;-64
2023/03/12 00:54:15;;;;;;;;;;;;;;;10.94;63.52;96640.13;4227962;28;5754;-65
2023/03/12 00:56:18;;;;;;;;;;;;;;;10.91;63.60;96635.22;4225976;28;5884;-66
2023/03/12 00:58:22;;;;;;;;;;;;;;;10.90;63.49;96636.25;4225981;28;5736;-66
2023/03/12 01:00:25;;;;;;;;;;;;;;;10.91;63.75;96642.34;4223939;28;5645;-65
2023/03/12 01:02:28;;;;;;;;;;;;;;;10.91;63.52;96640.53;4233753;28;5760;-65
2023/03/12 01:04:31;;;;;;;;;;;;;;;10.90;63.79;96652.13;4225356;28;5891;-65
2023/03/12 01:06:34;;;;;;;;;;;;;;;10.91;63.90;96642.34;4219172;28;5666;-65
2023/03/12 01:08:37;;;;;;;;;;;;;;;10.91;63.70;96648.47;4224784;28;5659;-65
2023/03/12 01:10:42;;;;;;;;;;;;;;;10.92;63.74;96646.63;4227153;28;5649;-65
2023/03/12 01:12:45;;;;;;;;;;;;;;;10.93;63.95;96645.59;4230880;28;5623;-65
2023/03/12 01:14:49;;;;;;;;;;;;;;;10.92;63.48;96654.56;4228354;28;5789;-66
2023/03/12 01:16:52;;;;;;;;;;;;;;;10.89;63.50;96655.78;4225675;28;5641;-66
2023/03/12 01:18:55;;;;;;;;;;;;;;;10.88;63.71;96653.34;4225821;28;5644;-65
2023/03/12 01:20:59;;;;;;;;;;;;;;;10.84;63.57;96658.19;4225678;28;5744;-65
2023/03/12 01:23:01;;;;;;;;;;;;;;;10.82;63.92;96659.41;4221754;28;5666;-66
2023/03/12 01:25:05;;;;;;;;;;;;;;;10.80;63.96;96656.97;4218148;28;5702;-66
2023/03/12 01:27:08;;;;;;;;;;;;;;;10.77;63.99;96657.38;4225522;28;5678;-65
2023/03/12 01:29:11;;;;;;;;;;;;;;;10.72;63.96;96654.47;4217557;28;5658;-65
2023/03/12 01:31:18;;;;;;;;;;;;;;;10.73;64.07;96656.91;4223530;28;5674;-65
2023/03/12 01:33:22;;;;;;;;;;;;;;;10.71;63.96;96660.78;4218305;28;5675;-65
2023/03/12 01:35:25;;;;;;;;;;;;;;;10.72;63.72;96663.22;4232896;28;5752;-65
2023/03/12 01:37:28;;;;;;;;;;;;;;;10.73;63.99;96666.69;4234223;27;5718;-65
2023/03/12 01:39:31;;;;;;;;;;;;;;;10.71;64.26;96681.94;4233894;28;5637;-66
2023/03/12 01:41:34;;;;;;;;;;;;;;;10.75;64.29;96685.81;4225384;28;5722;-66
2023/03/12 01:43:38;;;;;;;;;;;;;;;10.77;64.09;96683.81;4218195;28;5671;-66
2023/03/12 01:46:06;;;;;;;;;;;;;;;10.80;64.42;96683.41;4223862;28;5670;-66
2023/03/12 01:48:10;;;;;;;;;;;;;;;10.85;64.12;96669.56;4223011;28;6192;-66
2023/03/12 01:50:15;;;;;;;;;;;;;;;10.89;64.23;96653.13;4228242;28;5652;-66
2023/03/12 01:52:21;;;;;;;;;;;;;;;10.86;64.06;96645.56;4233223;28;5790;-65
2023/03/12 01:54:29;;;;;;;;;;;;;;;10.80;64.14;96641.09;4232668;28;5713;-66
2023/03/12 01:56:35;;;;;;;;;;;;;;;10.79;64.10;96640.28;4233495;28;5744;-66
2023/03/12 01:58:41;;;;;;;;;;;;;;;10.80;64.35;96627.88;4233046;28;5641;-66
2023/03/12 02:00:44;;;;;;;;;;;;;;;10.80;64.34;96619.94;4232969;28;5712;-66
2023/03/12 02:02:49;;;;;;;;;;;;;;;10.80;64.29;96614.66;4233823;28;5856;-66
2023/03/12 02:05:06;;;;;;;;;;;;;;;10.79;64.34;96613.03;4225413;28;7246;-65
2023/03/12 02:07:12;;;;;;;;;;;;;;;10.84;64.22;96610.59;4225577;28;5868;-65
2023/03/12 02:09:18;;;;;;;;;;;;;;;10.82;64.38;96617.09;4219481;28;5683;-66
2023/03/12 02:11:21;;;;;;;;;;;;;;;10.77;64.38;96620.34;4232049;28;5645;-66
2023/03/12 02:13:24;;;;;;;;;;;;;;;10.79;64.42;96621.78;4225960;28;5687;-65
2023/03/12 02:15:27;;;;;;;;;;;;;;;10.83;64.27;96631.94;4224908;28;5735;-66
2023/03/12 02:17:31;;;;;;;;;;;;;;;10.83;64.75;96629.28;4217358;28;5762;-65
2023/03/12 02:19:41;;;;;;;;;;;;;;;10.84;64.44;96636.22;4224876;28;5854;-66
2023/03/12 02:21:46;;;;;;;;;;;;;;;10.81;64.65;96626.84;4227634;28;5734;-66
2023/03/12 02:23:57;;;;;;;;;;;;;;;10.78;64.50;96630.72;4233870;28;5825;-66
2023/03/12 02:26:03;;;;;;;;;;;;;;;10.73;64.72;96625.19;4232614;28;5645;-66
2023/03/12 02:28:10;;;;;;;;;;;;;;;10.74;64.71;96626.81;4232146;28;5653;-66
2023/03/12 02:30:14;;;;;;;;;;;;;;;10.71;64.63;96611.34;4224576;28;6338;-66
2023/03/12 02:32:23;;;;;;;;;;;;;;;10.75;64.84;96619.69;4224840;28;5829;-66
2023/03/12 02:34:27;;;;;;;;;;;;;;;10.75;64.87;96617.06;4217135;28;5683;-66
2023/03/12 02:36:30;;;;;;;;;;;;;;;10.76;64.75;96611.59;4217384;28;5814;-66
2023/03/12 02:38:39;;;;;;;;;;;;;;;10.76;64.56;96603.66;4224839;28;5764;-65
2023/03/12 02:40:47;;;;;;;;;;;;;;;10.77;64.62;96604.47;4226950;28;5665;-66
2023/03/12 02:42:52;;;;;;;;;;;;;;;10.73;64.69;96613.81;4222328;27;5678;-65
2023/03/12 02:44:55;;;;;;;;;;;;;;;10.71;64.61;96621.94;4228630;28;5704;-66
2023/03/12 02:47:01;;;;;;;;;;;;;;;10.69;64.92;96618.69;4220626;28;5677;-66
2023/03/12 02:49:04;;;;;;;;;;;;;;;10.67;64.78;96619.91;4225718;28;5637;-65
2023/03/12 02:51:07;;;;;;;;;;;;;;;10.67;65.12;96622.53;4236204;28;5723;-65
2023/03/12 02:53:10;;;;;;;;;;;;;;;10.67;65.03;96619.91;4236277;28;5641;-66
2023/03/12 02:55:13;;;;;;;;;;;;;;;10.68;64.92;96626.81;4235651;28;5873;-65
2023/03/12 02:57:16;;;;;;;;;;;;;;;10.70;65.12;96624.78;4234685;28;5665;-65
2023/03/12 02:59:24;;;;;;;;;;;;;;;10.72;65.19;96628.03;4228514;28;5645;-65
2023/03/12 03:01:28;;;;;;;;;;;;;;;10.78;65.23;96629.91;4234384;28;5637;-65
2023/03/12 03:03:31;;;;;;;;;;;;;;;10.82;64.67;96632.97;4219949;28;5691;-66
2023/03/12 03:05:35;;;;;;;;;;;;;;;10.80;64.93;96630.50;4235413;28;5653;-65
2023/03/12 03:07:39;;;;;;;;;;;;;;;10.82;65.08;96633.78;4233885;27;5781;-66
2023/03/12 03:09:42;;;;;;;;;;;;;;;10.83;65.21;96624.81;4228130;28;5812;-65
2023/03/12 03:11:45;;;;;;;;;;;;;;;10.85;65.35;96617.50;4234830;28;5645;-66
2023/03/12 03:13:48;;;;;;;;;;;;;;;10.84;65.24;96621.16;4224693;28;5118;-66
2023/03/12 03:15:52;;;;;;;;;;;;;;;10.85;65.13;96630.72;4233182;28;6726;-66
2023/03/12 03:17:57;;;;;;;;;;;;;;;10.88;65.28;96626.88;4230037;28;5792;-66
2023/03/12 03:20:00;;;;;;;;;;;;;;;10.91;65.15;96627.28;4231767;28;6344;-66
2023/03/12 03:22:02;;;;;;;;;;;;;;;10.92;64.94;96613.06;4232525;28;5657;-66
2023/03/12 03:24:06;;;;;;;;;;;;;;;10.84;65.23;96605.28;4229628;28;5789;-65
2023/03/12 03:26:09;;;;;;;;;;;;;;;10.84;65.39;96605.28;4235007;28;5829;-65
2023/03/12 03:28:12;;;;;;;;;;;;;;;10.84;65.38;96610.59;4232170;28;5645;-66
2023/03/12 03:30:16;;;;;;;;;;;;;;;10.87;65.14;96614.66;4234196;28;5678;-65
2023/03/12 03:32:20;;;;;;;;;;;;;;;10.91;65.26;96610.63;4234411;28;5740;-65
2023/03/12 03:34:23;;;;;;;;;;;;;;;10.96;65.21;96609.00;4235479;28;5883;-66
2023/03/12 03:36:26;;;;;;;;;;;;;;;10.97;65.45;96605.31;4227792;28;5725;-65
2023/03/12 03:38:30;;;;;;;;;;;;;;;11.00;65.44;96610.25;4234894;28;5650;-66
2023/03/12 03:40:33;;;;;;;;;;;;;;;11.04;65.34;96611.47;4229779;28;5680;-66
2023/03/12 03:42:36;;;;;;;;;;;;;;;11.07;65.48;96615.53;4230117;28;5573;-65
2023/03/12 03:44:39;;;;;;;;;;;;;;;11.07;65.39;96618.97;4234549;28;5653;-65
2023/03/12 03:46:41;;;;;;;;;;;;;;;11.07;65.55;96616.34;4231029;28;5641;-65
2023/03/12 03:48:46;;;;;;;;;;;;;;;11.09;65.22;96616.94;4225053;28;5679;-65
2023/03/12 03:50:49;;;;;;;;;;;;;;;11.13;65.64;96616.56;4229429;28;5860;-66
2023/03/12 03:52:52;;;;;;;;;;;;;;;11.15;65.53;96615.34;4234915;28;5853;-65
2023/03/12 03:54:55;;;;;;;;;;;;;;;11.14;65.52;96616.38;4234904;28;6331;-65
2023/03/12 03:56:59;;;;;;;;;;;;;;;11.11;65.39;96621.25;4227044;27;5657;-65
2023/03/12 03:59:02;;;;;;;;;;;;;;;11.13;65.55;96616.56;4233115;28;5810;-66
2023/03/12 04:01:06;;;;;;;;;;;;;;;11.15;65.45;96625.13;4234594;28;5668;-65
2023/03/12 04:03:09;;;;;;;;;;;;;;;11.14;65.72;96629.59;4235156;28;5656;-65
2023/03/12 04:05:14;;;;;;;;;;;;;;;11.12;65.67;96633.47;4235156;28;5649;-65
2023/03/12 04:07:20;;;;;;;;;;;;;;;11.11;65.37;96637.13;4220210;28;5815;-65
2023/03/12 04:09:23;;;;;;;;;;;;;;;11.15;65.28;96651.56;4233773;28;5673;-65
2023/03/12 04:11:26;;;;;;;;;;;;;;;11.17;65.65;96662.78;4235175;28;5657;-65
2023/03/12 04:13:28;;;;;;;;;;;;;;;11.15;65.72;96662.16;4233301;28;5735;-65
2023/03/12 04:15:32;;;;;;;;;;;;;;;11.18;65.39;96669.69;4230215;28;5649;-65
2023/03/12 04:17:34;;;;;;;;;;;;;;;11.17;65.38;96673.34;4226214;28;5641;-66
2023/03/12 04:19:37;;;;;;;;;;;;;;;11.15;65.54;96670.09;4229709;27;5653;-65
2023/03/12 04:21:42;;;;;;;;;;;;;;;11.16;65.67;96669.91;4226401;28;5810;-65
2023/03/12 04:23:45;;;;;;;;;;;;;;;11.16;65.44;96669.06;4231813;28;5653;-65
2023/03/12 04:25:47;;;;;;;;;;;;;;;11.20;65.67;96667.66;4226992;28;5665;-66
2023/03/12 04:27:50;;;;;;;;;;;;;;;11.21;65.79;96671.94;4228000;28;5725;-65
2023/03/12 04:29:53;;;;;;;;;;;;;;;11.18;65.68;96670.50;4231469;28;5857;-66
2023/03/12 04:31:56;;;;;;;;;;;;;;;11.18;65.85;96677.63;4230002;27;5066;-66
2023/03/12 04:33:59;;;;;;;;;;;;;;;11.17;66.04;96668.88;4231071;28;5649;-66
2023/03/12 04:36:02;;;;;;;;;;;;;;;11.17;65.84;96674.16;4234729;28;5661;-65
2023/03/12 04:38:06;;;;;;;;;;;;;;;11.19;65.85;96682.72;4234918;28;5670;-65
2023/03/12 04:40:11;;;;;;;;;;;;;;;11.20;66.06;96684.34;4234405;28;5657;-66
2023/03/12 04:42:14;;;;;;;;;;;;;;;11.22;65.92;96676.22;4233789;28;5769;-66
2023/03/12 04:44:17;;;;;;;;;;;;;;;11.23;65.86;96673.38;4224490;27;5832;-66
2023/03/12 04:46:20;;;;;;;;;;;;;;;11.29;65.81;96690.28;4228282;28;5661;-65
2023/03/12 04:48:23;;;;;;;;;;;;;;;11.29;65.77;96687.63;4227381;28;6393;-65
2023/03/12 04:50:26;;;;;;;;;;;;;;;11.28;66.00;96686.00;4233930;28;5697;-65
2023/03/12 04:52:29;;;;;;;;;;;;;;;11.31;65.73;96691.69;4234046;28;5666;-66
2023/03/12 04:54:34;;;;;;;;;;;;;;;11.31;65.90;96685.59;4231549;28;6257;-65
2023/03/12 04:56:36;;;;;;;;;;;;;;;11.32;65.88;96693.31;4234196;28;5800;-66
2023/03/12 04:58:39;;;;;;;;;;;;;;;11.34;65.87;96693.16;4234019;28;5648;-65
2023/03/12 05:00:42;;;;;;;;;;;;;;;11.32;65.76;96697.81;4233661;28;5641;-65
2023/03/12 05:02:45;;;;;;;;;;;;;;;11.32;66.29;96697.81;4232153;28;5641;-66
2023/03/12 05:04:48;;;;;;;;;;;;;;;11.32;66.05;96693.31;4226703;28;5897;-66
2023/03/12 05:06:51;;;;;;;;;;;;;;;11.31;65.95;96699.63;4233962;28;5665;-65
2023/03/12 05:08:54;;;;;;;;;;;;;;;11.31;66.03;96686.41;4222842;28;5080;-65
2023/03/12 05:10:58;;;;;;;;;;;;;;;11.31;66.20;96696.19;4228213;28;6544;-65
2023/03/12 05:13:01;;;;;;;;;;;;;;;11.32;66.04;96688.03;4229019;28;5766;-64
2023/03/12 05:15:05;;;;;;;;;;;;;;;11.35;66.00;96687.66;4225363;28;5803;-65
2023/03/12 05:17:08;;;;;;;;;;;;;;;11.36;65.92;96691.13;4225690;28;5666;-66
2023/03/12 05:19:11;;;;;;;;;;;;;;;11.36;66.38;96686.63;4218562;28;5670;-65
2023/03/12 05:21:16;;;;;;;;;;;;;;;11.37;66.25;96684.81;4221912;28;5650;-65
2023/03/12 05:23:19;;;;;;;;;;;;;;;11.31;66.09;96669.72;4232144;28;5657;-64
2023/03/12 05:25:22;;;;;;;;;;;;;;;11.37;66.45;96684.81;4232165;28;5764;-65
2023/03/12 05:27:26;;;;;;;;;;;;;;;11.36;66.22;96685.81;4233661;28;5657;-65
2023/03/12 05:29:34;;;;;;;;;;;;;;;11.39;66.21;96690.72;4234381;28;5742;-65
2023/03/12 05:31:37;;;;;;;;;;;;;;;11.39;66.10;96693.34;4232092;28;5829;-66
2023/03/12 05:33:40;;;;;;;;;;;;;;;11.40;66.09;96700.28;4232862;28;5653;-66
2023/03/12 05:35:43;;;;;;;;;;;;;;;11.43;66.39;96702.50;4233356;28;5652;-66
2023/03/12 05:37:46;;;;;;;;;;;;;;;11.43;66.30;96707.00;4232251;28;5744;-66
2023/03/12 05:39:49;;;;;;;;;;;;;;;11.42;66.39;96703.53;4233599;28;5653;-66
2023/03/12 05:41:56;;;;;;;;;;;;;;;11.40;66.42;96700.28;4229388;28;5813;-66
2023/03/12 05:44:00;;;;;;;;;;;;;;;11.40;66.16;96702.94;4218592;28;5096;-66
2023/03/12 05:46:04;;;;;;;;;;;;;;;11.41;66.20;96701.09;4228790;28;5761;-65
2023/03/12 05:48:07;;;;;;;;;;;;;;;11.41;66.51;96707.19;4229461;27;5762;-65
2023/03/12 05:50:11;;;;;;;;;;;;;;;11.46;66.12;96710.09;4232912;28;5649;-66
2023/03/12 05:52:14;;;;;;;;;;;;;;;11.48;66.44;96713.34;4233456;28;5831;-66
2023/03/12 05:54:17;;;;;;;;;;;;;;;11.47;66.22;96711.72;4233311;28;5374;-65
2023/03/12 05:56:20;;;;;;;;;;;;;;;11.48;66.46;96707.22;4233246;28;7694;-66
2023/03/12 05:58:23;;;;;;;;;;;;;;;11.46;66.24;96710.09;4232796;28;5716;-66
2023/03/12 06:00:28;;;;;;;;;;;;;;;11.46;66.48;96710.09;4232882;28;5796;-66
2023/03/12 06:02:31;;;;;;;;;;;;;;;11.45;66.19;96708.44;4232447;28;5857;-66
2023/03/12 06:04:34;;;;;;;;;;;;;;;11.46;66.53;96707.44;4233240;28;5649;-66
2023/03/12 06:06:37;;;;;;;;;;;;;;;11.46;66.35;96710.09;4233049;28;5709;-66
2023/03/12 06:08:41;;;;;;;;;;;;;;;11.46;66.55;96714.56;4225462;28;5678;-66
2023/03/12 06:10:44;;;;;;;;;;;;;;;11.46;66.39;96725.97;4233369;28;5755;-66
2023/03/12 06:12:47;;;;;;;;;;;;;;;11.49;66.40;96730.84;4232192;28;5729;-65
2023/03/12 06:14:50;;;;;;;;;;;;;;;11.50;66.66;96742.25;4231339;28;5649;-66
2023/03/12 06:16:54;;;;;;;;;;;;;;;11.49;66.43;96741.44;4232417;28;5641;-66
2023/03/12 06:18:59;;;;;;;;;;;;;;;11.49;66.78;96751.22;4225218;28;5872;-66
2023/03/12 06:21:11;;;;;;;;;;;;;;;11.49;66.67;96746.72;4232544;28;5657;-65
2023/03/12 06:23:14;;;;;;;;;;;;;;;11.51;66.63;96750.00;4231200;28;5663;-65
2023/03/12 06:25:17;;;;;;;;;;;;;;;11.52;66.66;96751.63;4236470;28;5697;-66
2023/03/12 06:27:21;;;;;;;;;;;;;;;11.52;66.51;96750.81;4236236;28;5777;-66
2023/03/12 06:29:24;;;;;;;;;;;;;;;11.52;66.91;96762.22;4237366;28;5744;-66
2023/03/12 06:31:27;;;;;;;;;;;;;;;11.53;66.48;96766.50;4235505;28;5653;-65
2023/03/12 06:33:32;;;;;;;;;;;;;;;11.55;66.52;96772.41;4235335;28;5649;-65
2023/03/12 06:35:34;;;;;;;;;;;;;;;11.56;66.73;96766.09;4236098;28;5843;-66
2023/03/12 06:37:37;;;;;;;;;;;;;;;11.59;66.46;96768.34;4227214;28;5224;-66
2023/03/12 06:39:41;;;;;;;;;;;;;;;11.57;66.99;96770.38;4229256;28;5736;-65
2023/03/12 06:41:43;;;;;;;;;;;;;;;11.55;66.91;96761.84;4237042;28;6343;-66
2023/03/12 06:43:47;;;;;;;;;;;;;;;11.55;66.85;96775.06;4236468;28;6363;-66
2023/03/12 06:45:50;;;;;;;;;;;;;;;11.56;67.10;96768.75;4235899;28;5661;-66
2023/03/12 06:47:53;;;;;;;;;;;;;;;11.56;67.16;96776.69;4236328;28;6407;-66
2023/03/12 06:49:58;;;;;;;;;;;;;;;11.59;66.88;96781.59;4234998;28;5653;-66
2023/03/12 06:52:00;;;;;;;;;;;;;;;11.61;67.00;96786.69;4236111;28;5641;-67
2023/03/12 06:54:03;;;;;;;;;;;;;;;11.61;66.89;96784.03;4228188;28;5608;-67
2023/03/12 06:56:07;;;;;;;;;;;;;;;11.58;67.03;96782.59;4234546;28;5645;-67
2023/03/12 06:58:10;;;;;;;;;;;;;;;11.58;66.81;96768.56;4234972;28;5860;-65
2023/03/12 07:00:14;;;;;;;;;;;;;;;11.55;67.12;96769.78;4234912;28;5772;-64
2023/03/12 07:02:17;;;;;;;;;;;;;;;11.51;66.86;96771.16;4236039;28;6685;-67
2023/03/12 07:04:20;;;;;;;;;;;;;;;11.50;67.19;96772.19;4234798;28;5653;-65
2023/03/12 07:06:25;;;;;;;;;;;;;;;11.49;67.07;96777.69;4236099;28;5677;-66
2023/03/12 07:08:29;;;;;;;;;;;;;;;11.52;67.08;96788.69;4235650;28;5669;-66
2023/03/12 07:10:32;;;;;;;;;;;;;;;11.51;67.25;96791.53;4227916;28;5869;-65
2023/03/12 07:12:35;;;;;;;;;;;;;;;11.49;67.25;96793.56;4233430;28;6801;-66
2023/03/12 07:14:38;;;;;;;;;;;;;;;11.45;67.29;96787.88;4227048;28;5826;-66
2023/03/12 07:16:41;;;;;;;;;;;;;;;11.43;67.50;96786.41;4227907;28;5662;-66
2023/03/12 07:18:44;;;;;;;;;;;;;;;11.42;67.25;96787.41;4216074;27;5820;-69
2023/03/12 07:20:47;;;;;;;;;;;;;;;11.41;67.36;96786.59;4229165;28;5822;-70
2023/03/12 07:22:52;;;;;;;;;;;;;;;11.42;67.43;96798.00;4232873;28;5670;-69
2023/03/12 07:24:55;;;;;;;;;;;;;;;11.46;67.19;96801.91;4221271;28;5688;-70
2023/03/12 07:26:58;;;;;;;;;;;;;;;11.48;67.42;96811.28;4228813;28;6488;-75
2023/03/12 07:29:02;;;;;;;;;;;;;;;11.54;67.19;96810.47;4235106;28;5637;-75
2023/03/12 07:31:05;;;;;;;;;;;;;;;11.55;67.25;96814.78;4235310;28;5649;-74
2023/03/12 07:33:10;;;;;;;;;;;;;;;11.57;67.17;96806.63;4235318;28;5761;-75
2023/03/12 07:35:13;;;;;;;;;;;;;;;11.60;67.26;96804.41;4235050;28;5661;-75
2023/03/12 07:37:16;;;;;;;;;;;;;;;11.63;67.07;96809.28;4235132;28;5677;-75
2023/03/12 07:39:21;;;;;;;;;;;;;;;11.65;67.25;96814.38;4225480;28;5790;-76
2023/03/12 07:41:24;;;;;;;;;;;;;;;11.65;67.37;96815.19;4227755;28;5650;-75
2023/03/12 07:43:29;;;;;;;;;;;;;;;11.68;67.44;96818.50;4228299;28;5788;-75
2023/03/12 07:45:35;;;;;;;;;;;;;;;11.70;67.31;96816.44;4232894;28;5781;-76
2023/03/12 07:47:38;;;;;;;;;;;;;;;11.71;67.55;96818.09;4229333;28;5657;-76
2023/03/12 07:49:41;;;;;;;;;;;;;;;11.71;67.65;96812.78;4227195;28;5634;-76
2023/03/12 07:51:45;;;;;;;;;;;;;;;11.75;67.55;96824.59;4224330;28;5733;-76
2023/03/12 07:53:48;;;;;;;;;;;;;;;11.78;67.50;96829.50;4231460;28;5732;-76
2023/03/12 07:55:54;;;;;;;;;;;;;;;11.78;67.38;96825.03;4232638;28;5773;-74
2023/03/12 07:57:58;;;;;;;;;;;;;;;11.80;67.69;96830.16;4234008;27;5650;-76
2023/03/12 08:00:01;;;;;;;;;;;;;;;11.83;67.34;96825.28;4231769;28;6968;-75
2023/03/12 08:02:04;;;;;;;;;;;;;;;11.85;67.44;96819.78;4232284;28;5756;-75
2023/03/12 08:04:07;;;;;;;;;;;;;;;11.87;67.40;96823.84;4234374;28;5115;-75
2023/03/12 08:06:10;;;;;;;;;;;;;;;11.94;67.32;96831.81;4223474;28;5793;-74
2023/03/12 08:08:14;;;;;;;;;;;;;;;11.95;67.38;96833.44;4235468;28;5649;-77
2023/03/12 08:10:18;;;;;;;;;;;;;;;11.98;67.58;96829.56;4232204;28;5843;-69
2023/03/12 08:12:23;;;;;;;;;;;;;;;11.99;67.38;96832.03;4231908;28;5848;-68
2023/03/12 08:14:30;;;;;;;;;;;;;;;12.00;67.60;96848.72;4226849;27;5728;-67
2023/03/12 08:16:33;;;;;;;;;;;;;;;12.01;67.48;96851.22;4245879;27;5763;-67
2023/03/12 08:18:36;;;;;;;;;;;;;;;12.02;67.37;96847.53;4240352;27;5592;-66
2023/03/12 08:20:39;;;;;;;;;;;;;;;12.07;67.38;96852.22;4246114;27;5695;-68
2023/03/12 08:22:42;;;;;;;;;;;;;;;12.10;67.27;96857.13;4225100;28;5679;-68
2023/03/12 08:24:45;;;;;;;;;;;;;;;12.12;67.34;96858.56;4239396;27;5632;-68
2023/03/12 08:26:49;;;;;;;;;;;;;;;12.14;67.38;96869.78;4223959;28;6622;-68
2023/03/12 08:28:54;;;;;;;;;;;;;;;12.12;67.29;96871.00;4233084;27;6516;-68
2023/03/12 08:30:59;;;;;;;;;;;;;;;12.14;67.50;96871.63;4241211;27;5628;-68
2023/03/12 08:33:02;;;;;;;;;;;;;;;12.14;67.36;96867.13;4230191;27;5879;-67
2023/03/12 08:35:06;;;;;;;;;;;;;;;12.14;67.60;96867.13;4228273;27;6719;-68
2023/03/12 08:37:08;;;;;;;;;;;;;;;12.17;67.43;96874.66;4225435;28;5852;-68
2023/03/12 08:39:12;;;;;;;;;;;;;;;12.18;67.63;96873.66;4227637;28;5667;-69
2023/03/12 08:41:15;;;;;;;;;;;;;;;12.22;67.53;96877.53;4222648;28;5743;-68
2023/03/12 08:43:18;;;;;;;;;;;;;;;12.27;67.54;96878.78;4225310;28;7066;-67
2023/03/12 08:45:22;;;;;;;;;;;;;;;12.30;67.33;96886.31;4230051;28;7699;-67
2023/03/12 08:47:25;;;;;;;;;;;;;;;12.30;67.46;96888.97;4231103;28;5442;-67
2023/03/12 08:49:28;;;;;;;;;;;;;;;12.31;67.34;96890.59;4230002;28;7341;-67
2023/03/12 08:51:31;;;;;;;;;;;;;;;12.31;67.48;96890.59;4229144;28;5857;-68
2023/03/12 08:53:36;;;;;;;;;;;;;;;12.34;67.33;96887.53;4232553;28;5740;-67
2023/03/12 08:55:39;;;;;;;;;;;;;;;12.36;67.58;96882.88;4227397;28;5766;-67
2023/03/12 08:57:42;;;;;;;;;;;;;;;12.39;67.49;96885.09;4227170;28;5646;-67
2023/03/12 08:59:45;;;;;;;;;;;;;;;12.43;67.33;96873.06;4228803;28;5660;-67
2023/03/12 09:01:49;;;;;;;;;;;;;;;12.48;67.34;96879.41;4218309;28;5804;-68
2023/03/12 09:03:54;;;;;;;;;;;;;;;12.52;67.41;96880.63;4228021;28;5607;-66
2023/03/12 09:06:04;;;;;;;;;;;;;;;12.57;67.40;96885.34;4225612;27;5674;-67
2023/03/12 09:08:07;;;;;;;;;;;;;;;12.60;67.51;96895.53;4222359;28;5669;-67
2023/03/12 09:10:11;;;;;;;;;;;;;;;12.62;67.30;96901.44;4224057;28;5653;-68
2023/03/12 09:12:14;;;;;;;;;;;;;;;12.65;67.41;96905.53;4232179;28;5860;-68
2023/03/12 09:14:17;;;;;;;;;;;;;;;12.71;67.48;96908.19;4223386;28;5661;-68
2023/03/12 09:16:39;;;;;;;;;;;;;;;12.79;67.18;96915.94;4226237;28;6223;-67
2023/03/12 09:18:44;;;;;;;;;;;;;;;12.83;67.12;96914.50;4230943;28;5765;-68
2023/03/12 09:20:47;;;;;;;;;;;;;;;12.89;67.08;96915.53;4230136;28;5842;-68
2023/03/12 09:22:49;;;;;;;;;;;;;;;12.93;66.99;96918.59;4223330;28;5649;-68
2023/03/12 09:24:52;;;;;;;;;;;;;;;12.98;66.93;96916.13;4233232;28;5661;-68
2023/03/12 09:26:55;;;;;;;;;;;;;;;13.03;67.20;96913.69;4229980;28;5744;-68
2023/03/12 09:28:58;;;;;;;;;;;;;;;13.04;67.19;96918.00;4224914;28;5670;-67
2023/03/12 09:31:01;;;;;;;;;;;;;;;13.03;67.22;96924.31;4229233;28;5738;-68
2023/03/12 09:33:05;;;;;;;;;;;;;;;13.03;66.82;96929.63;4226090;28;5671;-67
2023/03/12 09:35:09;;;;;;;;;;;;;;;13.05;67.16;96939.00;4225307;28;5675;-67
2023/03/12 09:37:12;;;;;;;;;;;;;;;13.08;67.01;96943.91;4230778;28;5703;-68
2023/03/12 09:39:15;;;;;;;;;;;;;;;13.11;67.04;96948.78;4224316;28;5657;-67
2023/03/12 09:41:24;;;;;;;;;;;;;;;13.10;67.02;96943.69;4225173;28;5657;-67
2023/03/12 09:43:32;;;;;;;;;;;;;;;13.07;67.03;96957.38;4230404;28;5664;-68
2023/03/12 09:45:39;;;;;;;;;;;;;;;13.05;67.05;96954.13;4230270;28;5648;-68
2023/03/12 09:47:49;;;;;;;;;;;;;;;13.06;67.06;96951.25;4229247;28;5732;-68
2023/03/12 09:49:57;;;;;;;;;;;;;;;13.03;66.96;96942.91;4232573;28;5751;-68
2023/03/12 09:52:08;;;;;;;;;;;;;;;13.06;67.11;96939.81;4231268;28;5741;-69
2023/03/12 09:54:24;;;;;;;;;;;;;;;13.03;66.86;96941.06;4221778;28;5760;-68
2023/03/12 09:56:29;;;;;;;;;;;;;;;13.00;67.25;96943.28;4225135;27;5658;-68
2023/03/12 09:58:38;;;;;;;;;;;;;;;12.98;66.93;96955.94;4226228;28;5817;-69
2023/03/12 10:00:42;;;;;;;;;;;;;;;12.98;67.16;96963.91;4233352;28;5855;-69
2023/03/12 10:03:10;;;;;;;;;;;;;;;12.97;66.88;96956.97;4232479;28;5851;-71
2023/03/12 10:05:20;;;;;;;;;;;;;;;13.02;67.00;96960.66;4225576;28;5093;-70
2023/03/12 10:07:31;;;;;;;;;;;;;;;13.04;66.91;96949.84;4234586;28;5888;-70
2023/03/12 10:10:06;;;;;;;;;;;;;;;13.06;66.93;96961.06;4228955;28;5659;-70
2023/03/12 10:12:19;;;;;;;;;;;;;;;13.08;66.82;96961.66;4205538;27;6356;-69
2023/03/12 10:14:38;;;;;;;;;;;;;;;13.09;66.63;96974.72;4245422;27;5839;-69
2023/03/12 10:16:53;;;;;;;;;;;;;;;13.13;66.64;96972.47;4226302;28;5840;-69
2023/03/12 10:19:21;;;;;;;;;;;;;;;13.14;66.51;96974.13;4223831;28;5676;-70
2023/03/12 10:21:34;;;;;;;;;;;;;;;13.24;66.39;96981.69;4234741;28;5772;-70
2023/03/12 10:23:55;;;;;;;;;;;;;;;13.30;66.61;96978.22;4229256;28;5644;-70
2023/03/12 10:26:07;;;;;;;;;;;;;;;13.36;66.28;96967.63;4232632;27;5888;-70
2023/03/12 10:28:18;;;;;;;;;;;;;;;13.38;66.43;96967.41;4234617;27;5749;-69
2023/03/12 10:30:25;;;;;;;;;;;;;;;13.42;66.24;96959.81;4230519;28;6350;-69
2023/03/12 10:32:37;;;;;;;;;;;;;;;13.42;66.18;96971.25;4234912;28;5653;-67
2023/03/12 10:34:47;;;;;;;;;;;;;;;13.40;66.09;96970.66;4233346;28;5721;-66
2023/03/12 10:36:51;;;;;;;;;;;;;;;13.40;66.13;96976.78;4219854;28;5670;-67
2023/03/12 10:38:55;;;;;;;;;;;;;;;13.38;66.04;96976.19;4232327;28;5745;-67
2023/03/12 10:40:59;;;;;;;;;;;;;;;13.43;65.96;96982.69;4224252;28;5645;-66
2023/03/12 10:43:03;;;;;;;;;;;;;;;13.43;65.86;96977.41;4231976;28;5696;-66
2023/03/12 10:45:21;;;;;;;;;;;;;;;13.45;65.88;96970.03;4228629;28;5691;-67
2023/03/12 10:47:32;;;;;;;;;;;;;;;13.48;65.66;96977.56;4226848;28;5765;-67
2023/03/12 10:49:37;;;;;;;;;;;;;;;13.52;65.58;96981.47;4238132;27;5736;-67
2023/03/12 10:51:54;;;;;;;;;;;;;;;13.58;65.75;96985.94;4227283;28;5773;-67
2023/03/12 10:53:59;;;;;;;;;;;;;;;13.64;65.43;96990.44;4223839;28;5753;-66
2023/03/12 10:56:05;;;;;;;;;;;;;;;13.68;65.39;96989.81;4219115;28;5736;-65
2023/03/12 10:58:22;;;;;;;;;;;;;;;13.75;65.28;96997.78;4231037;28;5768;-66